sensor_id;sensor_type;location;lat;lon;timestamp;P1;durP1;ratioP1;P2;durP2;ratioP2
43256;SDS011;28860;43.212;27.934;2022-10-18T00:02:23;7.78;;;3.50;;
43256;SDS011;28860;43.212;27.934;2022-10-18T00:04:51;12.40;;;3.72;;
43256;SDS011;28860;43.212;27.934;2022-10-18T00:07:18;11.52;;;3.67;;
43256;SDS011;28860;43.212;27.934;2022-10-18T00:09:47;9.60;;;3.60;;
43256;SDS011;28860;43.212;27.934;2022-10-18T00:12:14;10.00;;;4.20;;
43256;SDS011;28860;43.212;27.934;2022-10-18T00:14:41;8.27;;;4.03;;
43256;SDS011;28860;43.212;27.934;2022-10-18T00:17:07;7.00;;;3.33;;
43256;SDS011;28860;43.212;27.934;2022-10-18T00:19:37;12.23;;;4.18;;
43256;SDS011;28860;43.212;27.934;2022-10-18T00:22:03;8.60;;;3.90;;
43256;SDS011;28860;43.212;27.934;2022-10-18T00:24:29;16.08;;;3.70;;
43256;SDS011;28860;43.212;27.934;2022-10-18T00:26:56;8.70;;;3.50;;
43256;SDS011;28860;43.212;27.934;2022-10-18T00:29:24;7.60;;;3.30;;
43256;SDS011;28860;43.212;27.934;2022-10-18T00:31:51;9.68;;;3.70;;
43256;SDS011;28860;43.212;27.934;2022-10-18T00:34:22;6.63;;;3.58;;
43256;SDS011;28860;43.212;27.934;2022-10-18T00:36:50;9.25;;;3.35;;
43256;SDS011;28860;43.212;27.934;2022-10-18T00:39:17;9.88;;;3.63;;
43256;SDS011;28860;43.212;27.934;2022-10-18T00:41:44;9.07;;;3.58;;
43256;SDS011;28860;43.212;27.934;2022-10-18T00:46:38;9.77;;;4.00;;
43256;SDS011;28860;43.212;27.934;2022-10-18T00:49:10;13.45;;;4.35;;
43256;SDS011;28860;43.212;27.934;2022-10-18T00:51:56;9.43;;;3.70;;
43256;SDS011;28860;43.212;27.934;2022-10-18T00:54:28;8.23;;;4.18;;
43256;SDS011;28860;43.212;27.934;2022-10-18T00:56:56;9.10;;;4.30;;
43256;SDS011;28860;43.212;27.934;2022-10-18T00:59:23;10.07;;;4.00;;
43256;SDS011;28860;43.212;27.934;2022-10-18T01:01:50;9.75;;;5.05;;
43256;SDS011;28860;43.212;27.934;2022-10-18T01:04:17;11.23;;;4.47;;
43256;SDS011;28860;43.212;27.934;2022-10-18T01:06:48;8.23;;;5.07;;
43256;SDS011;28860;43.212;27.934;2022-10-18T01:09:27;9.88;;;5.45;;
43256;SDS011;28860;43.212;27.934;2022-10-18T01:12:24;8.77;;;5.22;;
43256;SDS011;28860;43.212;27.934;2022-10-18T01:15:02;11.50;;;5.70;;
43256;SDS011;28860;43.212;27.934;2022-10-18T01:20:18;8.60;;;5.22;;
43256;SDS011;28860;43.212;27.934;2022-10-18T01:23:04;10.23;;;5.82;;
43256;SDS011;28860;43.212;27.934;2022-10-18T01:31:38;13.52;;;6.10;;
43256;SDS011;28860;43.212;27.934;2022-10-18T01:34:07;11.35;;;5.28;;
43256;SDS011;28860;43.212;27.934;2022-10-18T01:36:39;10.75;;;6.47;;
43256;SDS011;28860;43.212;27.934;2022-10-18T01:45:41;14.95;;;5.97;;
43256;SDS011;28860;43.212;27.934;2022-10-18T01:48:07;11.25;;;5.90;;
43256;SDS011;28860;43.212;27.934;2022-10-18T01:50:41;8.50;;;5.80;;
43256;SDS011;28860;43.212;27.934;2022-10-18T01:53:49;16.38;;;6.25;;
43256;SDS011;28860;43.212;27.934;2022-10-18T01:56:15;13.32;;;5.10;;
43256;SDS011;28860;43.212;27.934;2022-10-18T02:13:25;12.07;;;6.05;;
43256;SDS011;28860;43.212;27.934;2022-10-18T02:16:04;10.00;;;5.82;;
43256;SDS011;28860;43.212;27.934;2022-10-18T02:18:38;12.13;;;5.68;;
43256;SDS011;28860;43.212;27.934;2022-10-18T02:21:12;10.27;;;5.82;;
43256;SDS011;28860;43.212;27.934;2022-10-18T02:23:44;12.80;;;6.35;;
43256;SDS011;28860;43.212;27.934;2022-10-18T02:26:12;14.00;;;5.88;;
43256;SDS011;28860;43.212;27.934;2022-10-18T02:28:40;11.88;;;5.30;;
43256;SDS011;28860;43.212;27.934;2022-10-18T02:33:59;15.73;;;6.15;;
43256;SDS011;28860;43.212;27.934;2022-10-18T02:39:05;14.23;;;5.38;;
43256;SDS011;28860;43.212;27.934;2022-10-18T02:41:38;9.07;;;5.00;;
43256;SDS011;28860;43.212;27.934;2022-10-18T02:44:07;11.27;;;5.47;;
43256;SDS011;28860;43.212;27.934;2022-10-18T02:46:33;9.77;;;5.15;;
43256;SDS011;28860;43.212;27.934;2022-10-18T02:49:00;12.82;;;5.40;;
43256;SDS011;28860;43.212;27.934;2022-10-18T02:51:26;8.82;;;5.43;;
43256;SDS011;28860;43.212;27.934;2022-10-18T02:53:53;8.40;;;4.65;;
43256;SDS011;28860;43.212;27.934;2022-10-18T02:56:19;9.43;;;5.28;;
43256;SDS011;28860;43.212;27.934;2022-10-18T02:58:46;7.43;;;4.55;;
43256;SDS011;28860;43.212;27.934;2022-10-18T03:01:14;9.52;;;5.25;;
43256;SDS011;28860;43.212;27.934;2022-10-18T03:03:41;10.75;;;5.82;;
43256;SDS011;28860;43.212;27.934;2022-10-18T03:06:07;10.05;;;5.07;;
43256;SDS011;28860;43.212;27.934;2022-10-18T03:08:35;11.45;;;5.38;;
43256;SDS011;28860;43.212;27.934;2022-10-18T03:11:03;12.90;;;5.05;;
43256;SDS011;28860;43.212;27.934;2022-10-18T03:13:29;10.40;;;5.13;;
43256;SDS011;28860;43.212;27.934;2022-10-18T03:15:58;7.35;;;4.47;;
43256;SDS011;28860;43.212;27.934;2022-10-18T03:18:24;15.05;;;5.35;;
43256;SDS011;28860;43.212;27.934;2022-10-18T03:20:50;7.57;;;5.05;;
43256;SDS011;28860;43.212;27.934;2022-10-18T03:23:17;12.82;;;5.13;;
43256;SDS011;28860;43.212;27.934;2022-10-18T03:25:44;14.13;;;5.88;;
43256;SDS011;28860;43.212;27.934;2022-10-18T03:28:10;14.45;;;5.40;;
43256;SDS011;28860;43.212;27.934;2022-10-18T03:30:36;13.93;;;5.38;;
43256;SDS011;28860;43.212;27.934;2022-10-18T03:33:06;7.97;;;5.38;;
43256;SDS011;28860;43.212;27.934;2022-10-18T03:35:32;8.75;;;5.38;;
43256;SDS011;28860;43.212;27.934;2022-10-18T03:37:58;14.25;;;6.40;;
43256;SDS011;28860;43.212;27.934;2022-10-18T03:40:24;12.65;;;5.45;;
43256;SDS011;28860;43.212;27.934;2022-10-18T03:42:54;24.42;;;6.25;;
43256;SDS011;28860;43.212;27.934;2022-10-18T03:45:21;13.00;;;6.28;;
43256;SDS011;28860;43.212;27.934;2022-10-18T03:47:49;12.15;;;6.65;;
43256;SDS011;28860;43.212;27.934;2022-10-18T03:50:16;10.73;;;6.20;;
43256;SDS011;28860;43.212;27.934;2022-10-18T03:52:43;13.85;;;7.30;;
43256;SDS011;28860;43.212;27.934;2022-10-18T03:55:19;12.70;;;7.35;;
43256;SDS011;28860;43.212;27.934;2022-10-18T03:57:46;13.80;;;6.80;;
43256;SDS011;28860;43.212;27.934;2022-10-18T04:00:12;13.30;;;7.80;;
43256;SDS011;28860;43.212;27.934;2022-10-18T04:02:38;14.48;;;7.82;;
43256;SDS011;28860;43.212;27.934;2022-10-18T04:05:05;17.55;;;7.93;;
43256;SDS011;28860;43.212;27.934;2022-10-18T04:07:32;12.15;;;7.32;;
43256;SDS011;28860;43.212;27.934;2022-10-18T04:10:01;11.52;;;7.07;;
43256;SDS011;28860;43.212;27.934;2022-10-18T04:12:28;14.15;;;8.10;;
43256;SDS011;28860;43.212;27.934;2022-10-18T04:30:55;18.25;;;11.18;;
43256;SDS011;28860;43.212;27.934;2022-10-18T04:33:32;18.45;;;9.35;;
43256;SDS011;28860;43.212;27.934;2022-10-18T04:36:17;24.85;;;11.13;;
43256;SDS011;28860;43.212;27.934;2022-10-18T04:38:46;29.48;;;10.52;;
43256;SDS011;28860;43.212;27.934;2022-10-18T04:41:19;23.75;;;10.68;;
43256;SDS011;28860;43.212;27.934;2022-10-18T05:07:31;26.90;;;11.70;;
43256;SDS011;28860;43.212;27.934;2022-10-18T05:10:03;16.73;;;10.07;;
43256;SDS011;28860;43.212;27.934;2022-10-18T05:12:38;19.23;;;10.07;;
43256;SDS011;28860;43.212;27.934;2022-10-18T05:15:32;17.98;;;9.93;;
43256;SDS011;28860;43.212;27.934;2022-10-18T05:18:27;14.38;;;9.48;;
43256;SDS011;28860;43.212;27.934;2022-10-18T05:28:40;19.25;;;9.23;;
43256;SDS011;28860;43.212;27.934;2022-10-18T05:36:39;16.38;;;9.45;;
43256;SDS011;28860;43.212;27.934;2022-10-18T05:41:59;17.25;;;8.10;;
43256;SDS011;28860;43.212;27.934;2022-10-18T05:44:43;18.83;;;8.95;;
43256;SDS011;28860;43.212;27.934;2022-10-18T05:47:34;26.02;;;10.27;;
43256;SDS011;28860;43.212;27.934;2022-10-18T05:50:21;26.30;;;10.38;;
43256;SDS011;28860;43.212;27.934;2022-10-18T06:08:28;23.13;;;10.50;;
43256;SDS011;28860;43.212;27.934;2022-10-18T06:11:12;16.73;;;9.25;;
43256;SDS011;28860;43.212;27.934;2022-10-18T06:13:44;25.02;;;8.82;;
43256;SDS011;28860;43.212;27.934;2022-10-18T06:16:20;15.82;;;8.00;;
43256;SDS011;28860;43.212;27.934;2022-10-18T06:18:53;14.40;;;8.30;;
43256;SDS011;28860;43.212;27.934;2022-10-18T06:21:27;18.08;;;8.07;;
43256;SDS011;28860;43.212;27.934;2022-10-18T06:24:10;17.73;;;7.97;;
43256;SDS011;28860;43.212;27.934;2022-10-18T06:26:46;17.05;;;7.82;;
43256;SDS011;28860;43.212;27.934;2022-10-18T06:29:16;15.68;;;7.18;;
43256;SDS011;28860;43.212;27.934;2022-10-18T06:31:54;21.15;;;8.13;;
43256;SDS011;28860;43.212;27.934;2022-10-18T06:44:49;14.02;;;6.22;;
43256;SDS011;28860;43.212;27.934;2022-10-18T06:47:19;13.70;;;6.22;;
43256;SDS011;28860;43.212;27.934;2022-10-18T06:49:46;14.70;;;7.05;;
43256;SDS011;28860;43.212;27.934;2022-10-18T06:59:56;12.10;;;6.40;;
43256;SDS011;28860;43.212;27.934;2022-10-18T07:02:49;12.98;;;6.22;;
43256;SDS011;28860;43.212;27.934;2022-10-18T07:10:34;18.70;;;6.38;;
43256;SDS011;28860;43.212;27.934;2022-10-18T07:13:22;12.98;;;6.47;;
43256;SDS011;28860;43.212;27.934;2022-10-18T07:18:37;15.32;;;6.40;;
43256;SDS011;28860;43.212;27.934;2022-10-18T07:33:25;15.38;;;4.50;;
43256;SDS011;28860;43.212;27.934;2022-10-18T07:46:23;12.88;;;4.60;;
43256;SDS011;28860;43.212;27.934;2022-10-18T08:32:49;5.93;;;2.75;;
43256;SDS011;28860;43.212;27.934;2022-10-18T08:35:32;10.93;;;3.03;;
43256;SDS011;28860;43.212;27.934;2022-10-18T08:38:04;7.72;;;2.78;;
43256;SDS011;28860;43.212;27.934;2022-10-18T08:40:57;19.90;;;7.85;;
43256;SDS011;28860;43.212;27.934;2022-10-18T08:45:56;6.78;;;2.55;;
43256;SDS011;28860;43.212;27.934;2022-10-18T08:48:47;11.43;;;2.92;;
43256;SDS011;28860;43.212;27.934;2022-10-18T08:51:24;10.43;;;2.67;;
43256;SDS011;28860;43.212;27.934;2022-10-18T08:59:12;5.05;;;2.42;;
43256;SDS011;28860;43.212;27.934;2022-10-18T09:35:37;14.68;;;6.30;;
43256;SDS011;28860;43.212;27.934;2022-10-18T10:01:20;5.82;;;2.00;;
43256;SDS011;28860;43.212;27.934;2022-10-18T10:03:59;6.20;;;2.28;;
43256;SDS011;28860;43.212;27.934;2022-10-18T10:06:35;9.73;;;2.10;;
43256;SDS011;28860;43.212;27.934;2022-10-18T10:09:30;7.18;;;2.25;;
43256;SDS011;28860;43.212;27.934;2022-10-18T10:21:14;6.38;;;2.35;;
43256;SDS011;28860;43.212;27.934;2022-10-18T10:23:44;10.00;;;2.60;;
43256;SDS011;28860;43.212;27.934;2022-10-18T10:32:01;7.03;;;3.25;;
43256;SDS011;28860;43.212;27.934;2022-10-18T10:34:31;9.77;;;2.38;;
43256;SDS011;28860;43.212;27.934;2022-10-18T10:36:59;9.05;;;2.95;;
43256;SDS011;28860;43.212;27.934;2022-10-18T10:39:28;5.00;;;2.17;;
43256;SDS011;28860;43.212;27.934;2022-10-18T10:41:57;8.60;;;2.75;;
43256;SDS011;28860;43.212;27.934;2022-10-18T10:44:29;8.10;;;2.63;;
43256;SDS011;28860;43.212;27.934;2022-10-18T10:47:01;7.68;;;3.45;;
43256;SDS011;28860;43.212;27.934;2022-10-18T10:49:52;16.38;;;3.55;;
43256;SDS011;28860;43.212;27.934;2022-10-18T10:52:22;9.85;;;3.53;;
43256;SDS011;28860;43.212;27.934;2022-10-18T10:54:54;11.20;;;3.40;;
43256;SDS011;28860;43.212;27.934;2022-10-18T10:57:25;7.40;;;3.15;;
43256;SDS011;28860;43.212;27.934;2022-10-18T10:59:56;6.53;;;2.63;;
43256;SDS011;28860;43.212;27.934;2022-10-18T11:04:53;10.23;;;3.17;;
43256;SDS011;28860;43.212;27.934;2022-10-18T11:07:40;8.35;;;2.55;;
43256;SDS011;28860;43.212;27.934;2022-10-18T11:10:14;5.75;;;2.40;;
43256;SDS011;28860;43.212;27.934;2022-10-18T11:15:51;7.05;;;3.92;;
43256;SDS011;28860;43.212;27.934;2022-10-18T11:18:31;8.38;;;3.60;;
43256;SDS011;28860;43.212;27.934;2022-10-18T11:21:21;7.70;;;3.90;;
43256;SDS011;28860;43.212;27.934;2022-10-18T11:23:53;10.77;;;3.63;;
43256;SDS011;28860;43.212;27.934;2022-10-18T11:26:35;13.95;;;3.03;;
43256;SDS011;28860;43.212;27.934;2022-10-18T11:32:20;11.98;;;5.25;;
43256;SDS011;28860;43.212;27.934;2022-10-18T11:41:30;10.80;;;4.93;;
43256;SDS011;28860;43.212;27.934;2022-10-18T11:47:19;7.53;;;3.13;;
43256;SDS011;28860;43.212;27.934;2022-10-18T11:53:08;10.43;;;3.20;;
43256;SDS011;28860;43.212;27.934;2022-10-18T12:04:24;6.28;;;2.13;;
43256;SDS011;28860;43.212;27.934;2022-10-18T12:07:12;9.73;;;2.20;;
43256;SDS011;28860;43.212;27.934;2022-10-18T12:09:42;7.13;;;2.50;;
43256;SDS011;28860;43.212;27.934;2022-10-18T12:15:00;7.07;;;2.70;;
43256;SDS011;28860;43.212;27.934;2022-10-18T12:17:39;5.50;;;2.17;;
43256;SDS011;28860;43.212;27.934;2022-10-18T12:20:12;10.88;;;3.00;;
43256;SDS011;28860;43.212;27.934;2022-10-18T12:25:52;10.85;;;2.63;;
43256;SDS011;28860;43.212;27.934;2022-10-18T12:31:42;9.88;;;4.55;;
43256;SDS011;28860;43.212;27.934;2022-10-18T12:42:35;11.50;;;5.07;;
43256;SDS011;28860;43.212;27.934;2022-10-18T12:47:47;10.20;;;2.10;;
43256;SDS011;28860;43.212;27.934;2022-10-18T12:50:29;11.73;;;3.00;;
43256;SDS011;28860;43.212;27.934;2022-10-18T12:53:02;6.70;;;2.08;;
43256;SDS011;28860;43.212;27.934;2022-10-18T12:55:41;7.05;;;1.90;;
43256;SDS011;28860;43.212;27.934;2022-10-18T13:19:33;6.63;;;2.15;;
43256;SDS011;28860;43.212;27.934;2022-10-18T13:28:05;9.32;;;3.63;;
43256;SDS011;28860;43.212;27.934;2022-10-18T13:30:56;9.02;;;3.28;;
43256;SDS011;28860;43.212;27.934;2022-10-18T13:33:35;9.70;;;2.60;;
43256;SDS011;28860;43.212;27.934;2022-10-18T13:36:24;10.93;;;2.53;;
43256;SDS011;28860;43.212;27.934;2022-10-18T14:05:12;8.68;;;2.00;;
43256;SDS011;28860;43.212;27.934;2022-10-18T14:07:46;13.65;;;2.45;;
43256;SDS011;28860;43.212;27.934;2022-10-18T14:10:25;6.40;;;1.85;;
43256;SDS011;28860;43.212;27.934;2022-10-18T14:13:20;9.73;;;2.17;;
43256;SDS011;28860;43.212;27.934;2022-10-18T14:15:50;10.75;;;2.42;;
43256;SDS011;28860;43.212;27.934;2022-10-18T14:18:21;7.72;;;2.90;;
43256;SDS011;28860;43.212;27.934;2022-10-18T14:20:54;6.53;;;2.00;;
43256;SDS011;28860;43.212;27.934;2022-10-18T14:23:33;10.07;;;1.98;;
43256;SDS011;28860;43.212;27.934;2022-10-18T14:26:06;8.25;;;2.10;;
43256;SDS011;28860;43.212;27.934;2022-10-18T14:28:32;6.18;;;2.17;;
43256;SDS011;28860;43.212;27.934;2022-10-18T14:31:03;10.50;;;1.90;;
43256;SDS011;28860;43.212;27.934;2022-10-18T14:33:35;6.53;;;2.72;;
43256;SDS011;28860;43.212;27.934;2022-10-18T14:38:46;8.75;;;2.25;;
43256;SDS011;28860;43.212;27.934;2022-10-18T14:44:11;5.25;;;2.13;;
43256;SDS011;28860;43.212;27.934;2022-10-18T14:46:42;5.00;;;2.00;;
43256;SDS011;28860;43.212;27.934;2022-10-18T14:49:10;7.15;;;2.42;;
43256;SDS011;28860;43.212;27.934;2022-10-18T14:51:38;5.65;;;2.05;;
43256;SDS011;28860;43.212;27.934;2022-10-18T14:54:08;6.07;;;2.38;;
43256;SDS011;28860;43.212;27.934;2022-10-18T14:56:38;7.05;;;2.33;;
43256;SDS011;28860;43.212;27.934;2022-10-18T14:59:24;7.78;;;2.55;;
43256;SDS011;28860;43.212;27.934;2022-10-18T15:04:42;8.00;;;2.22;;
43256;SDS011;28860;43.212;27.934;2022-10-18T15:07:13;7.32;;;2.40;;
43256;SDS011;28860;43.212;27.934;2022-10-18T15:09:40;7.10;;;2.33;;
43256;SDS011;28860;43.212;27.934;2022-10-18T15:12:07;6.30;;;2.10;;
43256;SDS011;28860;43.212;27.934;2022-10-18T15:14:38;9.60;;;2.33;;
43256;SDS011;28860;43.212;27.934;2022-10-18T15:20:03;8.80;;;2.15;;
43256;SDS011;28860;43.212;27.934;2022-10-18T15:22:49;5.65;;;2.10;;
43256;SDS011;28860;43.212;27.934;2022-10-18T15:25:16;6.15;;;1.98;;
43256;SDS011;28860;43.212;27.934;2022-10-18T15:27:55;7.30;;;2.40;;
43256;SDS011;28860;43.212;27.934;2022-10-18T15:32:54;8.63;;;2.30;;
43256;SDS011;28860;43.212;27.934;2022-10-18T15:35:29;11.20;;;2.40;;
43256;SDS011;28860;43.212;27.934;2022-10-18T15:38:01;4.90;;;2.05;;
43256;SDS011;28860;43.212;27.934;2022-10-18T15:40:38;7.77;;;2.30;;
43256;SDS011;28860;43.212;27.934;2022-10-18T15:43:32;6.03;;;2.15;;
43256;SDS011;28860;43.212;27.934;2022-10-18T15:45:52;6.80;;;2.35;;
43256;SDS011;28860;43.212;27.934;2022-10-18T15:48:36;6.03;;;2.53;;
43256;SDS011;28860;43.212;27.934;2022-10-18T15:51:15;8.82;;;2.60;;
43256;SDS011;28860;43.212;27.934;2022-10-18T15:54:00;7.45;;;2.72;;
43256;SDS011;28860;43.212;27.934;2022-10-18T15:56:34;11.07;;;2.80;;
43256;SDS011;28860;43.212;27.934;2022-10-18T15:59:11;11.88;;;3.38;;
43256;SDS011;28860;43.212;27.934;2022-10-18T16:01:46;10.88;;;3.67;;
43256;SDS011;28860;43.212;27.934;2022-10-18T16:04:22;15.82;;;3.58;;
43256;SDS011;28860;43.212;27.934;2022-10-18T16:06:48;9.10;;;3.63;;
43256;SDS011;28860;43.212;27.934;2022-10-18T16:09:17;12.90;;;3.95;;
43256;SDS011;28860;43.212;27.934;2022-10-18T16:11:44;14.57;;;4.22;;
43256;SDS011;28860;43.212;27.934;2022-10-18T16:14:11;12.02;;;4.97;;
43256;SDS011;28860;43.212;27.934;2022-10-18T16:16:37;12.98;;;5.22;;
43256;SDS011;28860;43.212;27.934;2022-10-18T16:19:04;13.23;;;5.20;;
43256;SDS011;28860;43.212;27.934;2022-10-18T16:21:34;12.55;;;4.97;;
43256;SDS011;28860;43.212;27.934;2022-10-18T16:24:01;13.25;;;5.38;;
43256;SDS011;28860;43.212;27.934;2022-10-18T16:26:27;15.00;;;4.97;;
43256;SDS011;28860;43.212;27.934;2022-10-18T16:28:53;13.98;;;5.00;;
43256;SDS011;28860;43.212;27.934;2022-10-18T16:31:21;12.85;;;4.25;;
43256;SDS011;28860;43.212;27.934;2022-10-18T16:33:50;12.73;;;4.47;;
43256;SDS011;28860;43.212;27.934;2022-10-18T16:36:21;10.90;;;4.13;;
43256;SDS011;28860;43.212;27.934;2022-10-18T16:38:59;8.68;;;3.78;;
43256;SDS011;28860;43.212;27.934;2022-10-18T16:41:27;9.85;;;3.70;;
43256;SDS011;28860;43.212;27.934;2022-10-18T16:43:53;14.27;;;4.53;;
43256;SDS011;28860;43.212;27.934;2022-10-18T16:46:23;15.93;;;3.85;;
43256;SDS011;28860;43.212;27.934;2022-10-18T16:48:51;13.35;;;4.10;;
43256;SDS011;28860;43.212;27.934;2022-10-18T16:51:20;11.07;;;3.60;;
43256;SDS011;28860;43.212;27.934;2022-10-18T16:53:47;10.73;;;3.28;;
43256;SDS011;28860;43.212;27.934;2022-10-18T16:56:17;7.43;;;3.10;;
43256;SDS011;28860;43.212;27.934;2022-10-18T16:58:51;14.20;;;3.50;;
43256;SDS011;28860;43.212;27.934;2022-10-18T17:01:18;10.35;;;2.88;;
43256;SDS011;28860;43.212;27.934;2022-10-18T17:03:45;12.00;;;2.97;;
43256;SDS011;28860;43.212;27.934;2022-10-18T17:06:15;9.80;;;3.08;;
43256;SDS011;28860;43.212;27.934;2022-10-18T17:08:55;13.05;;;2.58;;
43256;SDS011;28860;43.212;27.934;2022-10-18T17:11:23;5.25;;;2.10;;
43256;SDS011;28860;43.212;27.934;2022-10-18T17:13:56;9.52;;;2.83;;
43256;SDS011;28860;43.212;27.934;2022-10-18T17:16:26;9.45;;;2.25;;
43256;SDS011;28860;43.212;27.934;2022-10-18T17:18:55;9.73;;;2.53;;
43256;SDS011;28860;43.212;27.934;2022-10-18T17:23:53;5.30;;;2.20;;
43256;SDS011;28860;43.212;27.934;2022-10-18T17:26:19;4.88;;;2.00;;
43256;SDS011;28860;43.212;27.934;2022-10-18T17:28:50;7.13;;;2.40;;
43256;SDS011;28860;43.212;27.934;2022-10-18T17:31:20;6.57;;;2.60;;
43256;SDS011;28860;43.212;27.934;2022-10-18T17:33:46;5.88;;;2.40;;
43256;SDS011;28860;43.212;27.934;2022-10-18T17:36:12;5.65;;;2.30;;
43256;SDS011;28860;43.212;27.934;2022-10-18T17:38:38;7.82;;;2.20;;
43256;SDS011;28860;43.212;27.934;2022-10-18T17:41:13;8.75;;;2.38;;
43256;SDS011;28860;43.212;27.934;2022-10-18T17:43:38;8.68;;;2.63;;
43256;SDS011;28860;43.212;27.934;2022-10-18T17:46:15;11.02;;;2.42;;
43256;SDS011;28860;43.212;27.934;2022-10-18T17:48:41;11.50;;;3.05;;
43256;SDS011;28860;43.212;27.934;2022-10-18T17:51:11;8.90;;;2.95;;
43256;SDS011;28860;43.212;27.934;2022-10-18T17:53:41;14.68;;;3.22;;
43256;SDS011;28860;43.212;27.934;2022-10-18T17:56:09;10.63;;;3.20;;
43256;SDS011;28860;43.212;27.934;2022-10-18T17:58:37;8.05;;;2.95;;
43256;SDS011;28860;43.212;27.934;2022-10-18T18:01:13;9.43;;;3.30;;
43256;SDS011;28860;43.212;27.934;2022-10-18T18:03:42;6.82;;;3.17;;
43256;SDS011;28860;43.212;27.934;2022-10-18T18:08:48;9.77;;;3.60;;
43256;SDS011;28860;43.212;27.934;2022-10-18T18:11:14;6.85;;;3.10;;
43256;SDS011;28860;43.212;27.934;2022-10-18T18:13:41;8.80;;;3.10;;
43256;SDS011;28860;43.212;27.934;2022-10-18T18:16:13;6.78;;;3.03;;
43256;SDS011;28860;43.212;27.934;2022-10-18T18:18:39;8.10;;;2.90;;
43256;SDS011;28860;43.212;27.934;2022-10-18T18:21:05;12.07;;;2.78;;
43256;SDS011;28860;43.212;27.934;2022-10-18T18:23:31;6.15;;;2.88;;
43256;SDS011;28860;43.212;27.934;2022-10-18T18:25:57;10.45;;;2.80;;
43256;SDS011;28860;43.212;27.934;2022-10-18T18:28:23;7.45;;;3.00;;
43256;SDS011;28860;43.212;27.934;2022-10-18T18:30:48;6.70;;;2.80;;
43256;SDS011;28860;43.212;27.934;2022-10-18T18:33:14;9.98;;;3.10;;
43256;SDS011;28860;43.212;27.934;2022-10-18T18:35:40;8.93;;;2.70;;
43256;SDS011;28860;43.212;27.934;2022-10-18T18:38:06;5.60;;;2.50;;
43256;SDS011;28860;43.212;27.934;2022-10-18T18:40:35;6.78;;;2.58;;
43256;SDS011;28860;43.212;27.934;2022-10-18T18:43:00;11.80;;;2.40;;
43256;SDS011;28860;43.212;27.934;2022-10-18T18:45:26;5.28;;;2.30;;
43256;SDS011;28860;43.212;27.934;2022-10-18T18:47:51;7.18;;;2.67;;
43256;SDS011;28860;43.212;27.934;2022-10-18T18:50:17;7.95;;;2.55;;
43256;SDS011;28860;43.212;27.934;2022-10-18T18:52:43;7.88;;;2.25;;
43256;SDS011;28860;43.212;27.934;2022-10-18T18:55:08;6.95;;;2.60;;
43256;SDS011;28860;43.212;27.934;2022-10-18T18:57:34;7.72;;;2.97;;
43256;SDS011;28860;43.212;27.934;2022-10-18T19:00:00;5.05;;;2.30;;
43256;SDS011;28860;43.212;27.934;2022-10-18T19:02:25;9.43;;;2.50;;
43256;SDS011;28860;43.212;27.934;2022-10-18T19:04:51;6.57;;;2.75;;
43256;SDS011;28860;43.212;27.934;2022-10-18T19:07:17;9.93;;;2.80;;
43256;SDS011;28860;43.212;27.934;2022-10-18T19:09:42;8.70;;;2.40;;
43256;SDS011;28860;43.212;27.934;2022-10-18T19:12:08;8.57;;;2.60;;
43256;SDS011;28860;43.212;27.934;2022-10-18T19:14:34;10.85;;;2.72;;
43256;SDS011;28860;43.212;27.934;2022-10-18T19:17:00;10.00;;;2.70;;
43256;SDS011;28860;43.212;27.934;2022-10-18T19:19:29;12.48;;;2.95;;
43256;SDS011;28860;43.212;27.934;2022-10-18T19:21:56;11.40;;;3.45;;
43256;SDS011;28860;43.212;27.934;2022-10-18T19:24:24;6.22;;;3.10;;
43256;SDS011;28860;43.212;27.934;2022-10-18T19:26:52;9.75;;;3.42;;
43256;SDS011;28860;43.212;27.934;2022-10-18T19:31:46;8.23;;;3.05;;
43256;SDS011;28860;43.212;27.934;2022-10-18T19:34:13;9.23;;;3.25;;
43256;SDS011;28860;43.212;27.934;2022-10-18T19:36:42;7.90;;;3.47;;
43256;SDS011;28860;43.212;27.934;2022-10-18T19:39:13;12.30;;;4.22;;
43256;SDS011;28860;43.212;27.934;2022-10-18T19:41:42;18.73;;;8.43;;
43256;SDS011;28860;43.212;27.934;2022-10-18T19:44:09;23.02;;;10.38;;
43256;SDS011;28860;43.212;27.934;2022-10-18T19:46:35;23.58;;;10.02;;
43256;SDS011;28860;43.212;27.934;2022-10-18T19:49:00;27.75;;;10.75;;
43256;SDS011;28860;43.212;27.934;2022-10-18T19:57:41;23.88;;;10.88;;
43256;SDS011;28860;43.212;27.934;2022-10-18T20:00:07;27.33;;;11.07;;
43256;SDS011;28860;43.212;27.934;2022-10-18T20:02:33;21.70;;;10.95;;
43256;SDS011;28860;43.212;27.934;2022-10-18T20:04:59;23.60;;;11.43;;
43256;SDS011;28860;43.212;27.934;2022-10-18T20:07:27;20.50;;;10.55;;
43256;SDS011;28860;43.212;27.934;2022-10-18T20:09:53;25.60;;;11.98;;
43256;SDS011;28860;43.212;27.934;2022-10-18T20:12:19;21.38;;;10.90;;
43256;SDS011;28860;43.212;27.934;2022-10-18T20:14:44;26.33;;;11.30;;
43256;SDS011;28860;43.212;27.934;2022-10-18T20:17:10;27.33;;;12.57;;
43256;SDS011;28860;43.212;27.934;2022-10-18T20:19:37;28.30;;;11.73;;
43256;SDS011;28860;43.212;27.934;2022-10-18T20:22:04;21.45;;;12.43;;
43256;SDS011;28860;43.212;27.934;2022-10-18T20:24:30;28.70;;;11.32;;
43256;SDS011;28860;43.212;27.934;2022-10-18T20:26:55;17.95;;;10.63;;
43256;SDS011;28860;43.212;27.934;2022-10-18T20:29:21;22.98;;;11.38;;
43256;SDS011;28860;43.212;27.934;2022-10-18T20:31:49;29.23;;;11.20;;
43256;SDS011;28860;43.212;27.934;2022-10-18T20:34:15;20.65;;;10.18;;
43256;SDS011;28860;43.212;27.934;2022-10-18T20:36:41;20.05;;;10.77;;
43256;SDS011;28860;43.212;27.934;2022-10-18T20:39:07;17.55;;;10.45;;
43256;SDS011;28860;43.212;27.934;2022-10-18T20:41:37;21.83;;;9.57;;
43256;SDS011;28860;43.212;27.934;2022-10-18T20:44:06;21.97;;;9.03;;
43256;SDS011;28860;43.212;27.934;2022-10-18T20:46:38;16.35;;;8.77;;
43256;SDS011;28860;43.212;27.934;2022-10-18T20:49:07;18.13;;;9.20;;
43256;SDS011;28860;43.212;27.934;2022-10-18T20:51:34;16.40;;;8.52;;
43256;SDS011;28860;43.212;27.934;2022-10-18T20:54:01;22.85;;;9.25;;
43256;SDS011;28860;43.212;27.934;2022-10-18T20:56:28;21.52;;;9.02;;
43256;SDS011;28860;43.212;27.934;2022-10-18T20:58:57;22.02;;;8.85;;
43256;SDS011;28860;43.212;27.934;2022-10-18T21:01:32;22.02;;;9.38;;
43256;SDS011;28860;43.212;27.934;2022-10-18T21:03:59;19.35;;;8.85;;
43256;SDS011;28860;43.212;27.934;2022-10-18T21:06:27;16.40;;;9.15;;
43256;SDS011;28860;43.212;27.934;2022-10-18T21:09:09;17.98;;;9.40;;
43256;SDS011;28860;43.212;27.934;2022-10-18T21:11:38;17.90;;;10.13;;
43256;SDS011;28860;43.212;27.934;2022-10-18T21:14:04;20.58;;;9.43;;
43256;SDS011;28860;43.212;27.934;2022-10-18T21:16:32;19.52;;;10.50;;
43256;SDS011;28860;43.212;27.934;2022-10-18T21:19:06;20.30;;;11.00;;
43256;SDS011;28860;43.212;27.934;2022-10-18T21:21:36;18.25;;;10.52;;
43256;SDS011;28860;43.212;27.934;2022-10-18T21:24:07;27.42;;;11.60;;
43256;SDS011;28860;43.212;27.934;2022-10-18T21:26:34;22.73;;;11.38;;
43256;SDS011;28860;43.212;27.934;2022-10-18T21:29:01;22.83;;;10.75;;
43256;SDS011;28860;43.212;27.934;2022-10-18T21:31:29;18.85;;;10.52;;
43256;SDS011;28860;43.212;27.934;2022-10-18T21:33:57;22.75;;;11.00;;
43256;SDS011;28860;43.212;27.934;2022-10-18T21:36:25;27.73;;;12.77;;
43256;SDS011;28860;43.212;27.934;2022-10-18T21:38:52;25.40;;;12.27;;
43256;SDS011;28860;43.212;27.934;2022-10-18T21:41:18;24.17;;;11.65;;
43256;SDS011;28860;43.212;27.934;2022-10-18T21:43:48;22.83;;;11.98;;